sensor_id;sensor_type;location;lat;lon;timestamp;temperature;humidity
7700;DHT22;3892;47.794;19.126;2022-09-01T00:01:46;26.60;48.90
7700;DHT22;3892;47.794;19.126;2022-09-01T00:04:16;26.50;49.70
7700;DHT22;3892;47.794;19.126;2022-09-01T00:06:45;26.40;50.10
7700;DHT22;3892;47.794;19.126;2022-09-01T00:09:15;26.30;50.40
7700;DHT22;3892;47.794;19.126;2022-09-01T00:11:46;26.30;51.20
7700;DHT22;3892;47.794;19.126;2022-09-01T00:14:13;26.10;50.30
7700;DHT22;3892;47.794;19.126;2022-09-01T00:16:40;26.00;51.10
7700;DHT22;3892;47.794;19.126;2022-09-01T00:19:07;25.90;52.70
7700;DHT22;3892;47.794;19.126;2022-09-01T00:21:39;25.90;53.50
7700;DHT22;3892;47.794;19.126;2022-09-01T00:24:06;25.90;52.40
7700;DHT22;3892;47.794;19.126;2022-09-01T00:26:34;25.80;53.00
7700;DHT22;3892;47.794;19.126;2022-09-01T00:29:00;25.80;53.80
7700;DHT22;3892;47.794;19.126;2022-09-01T00:31:28;25.70;51.90
7700;DHT22;3892;47.794;19.126;2022-09-01T00:33:55;25.60;50.70
7700;DHT22;3892;47.794;19.126;2022-09-01T00:36:22;25.60;49.90
7700;DHT22;3892;47.794;19.126;2022-09-01T00:38:51;25.60;49.50
7700;DHT22;3892;47.794;19.126;2022-09-01T00:41:21;25.60;50.50
7700;DHT22;3892;47.794;19.126;2022-09-01T00:43:51;25.60;50.00
7700;DHT22;3892;47.794;19.126;2022-09-01T00:46:21;25.60;49.30
7700;DHT22;3892;47.794;19.126;2022-09-01T00:48:53;25.60;48.80
7700;DHT22;3892;47.794;19.126;2022-09-01T00:51:22;25.50;48.80
7700;DHT22;3892;47.794;19.126;2022-09-01T00:53:51;25.40;48.30
7700;DHT22;3892;47.794;19.126;2022-09-01T00:56:21;25.40;49.70
7700;DHT22;3892;47.794;19.126;2022-09-01T00:58:48;25.40;50.70
7700;DHT22;3892;47.794;19.126;2022-09-01T01:01:16;25.40;51.60
7700;DHT22;3892;47.794;19.126;2022-09-01T01:03:43;25.30;51.90
7700;DHT22;3892;47.794;19.126;2022-09-01T01:06:13;25.10;51.30
7700;DHT22;3892;47.794;19.126;2022-09-01T01:08:44;25.10;51.80
7700;DHT22;3892;47.794;19.126;2022-09-01T01:11:15;25.10;53.30
7700;DHT22;3892;47.794;19.126;2022-09-01T01:13:47;25.10;53.50
7700;DHT22;3892;47.794;19.126;2022-09-01T01:16:17;25.00;54.60
7700;DHT22;3892;47.794;19.126;2022-09-01T01:18:44;25.00;55.40
7700;DHT22;3892;47.794;19.126;2022-09-01T01:21:17;25.00;55.40
7700;DHT22;3892;47.794;19.126;2022-09-01T01:24:08;25.00;56.00
7700;DHT22;3892;47.794;19.126;2022-09-01T01:26:37;25.00;57.10
7700;DHT22;3892;47.794;19.126;2022-09-01T01:29:05;25.00;58.90
7700;DHT22;3892;47.794;19.126;2022-09-01T01:31:35;25.00;62.20
7700;DHT22;3892;47.794;19.126;2022-09-01T01:34:03;24.70;69.40
7700;DHT22;3892;47.794;19.126;2022-09-01T01:36:35;24.60;72.10
7700;DHT22;3892;47.794;19.126;2022-09-01T01:44:03;24.40;92.60
7700;DHT22;3892;47.794;19.126;2022-09-01T01:46:32;24.40;74.20
7700;DHT22;3892;47.794;19.126;2022-09-01T01:49:02;24.50;73.30
7700;DHT22;3892;47.794;19.126;2022-09-01T01:51:31;24.50;74.10
7700;DHT22;3892;47.794;19.126;2022-09-01T01:54:00;24.60;75.10
7700;DHT22;3892;47.794;19.126;2022-09-01T02:06:32;24.80;92.70
7700;DHT22;3892;47.794;19.126;2022-09-01T02:08:59;24.90;86.90
7700;DHT22;3892;47.794;19.126;2022-09-01T02:11:30;24.90;71.60
7700;DHT22;3892;47.794;19.126;2022-09-01T02:13:59;24.90;68.10
7700;DHT22;3892;47.794;19.126;2022-09-01T02:16:29;24.90;66.80
7700;DHT22;3892;47.794;19.126;2022-09-01T02:18:58;24.90;65.80
7700;DHT22;3892;47.794;19.126;2022-09-01T02:21:26;24.90;65.30
7700;DHT22;3892;47.794;19.126;2022-09-01T02:23:56;24.90;65.10
7700;DHT22;3892;47.794;19.126;2022-09-01T02:26:26;24.90;65.00
7700;DHT22;3892;47.794;19.126;2022-09-01T02:28:56;24.90;64.70
7700;DHT22;3892;47.794;19.126;2022-09-01T02:31:28;24.90;65.40
7700;DHT22;3892;47.794;19.126;2022-09-01T02:33:58;24.90;64.50
7700;DHT22;3892;47.794;19.126;2022-09-01T02:36:27;24.90;64.00
7700;DHT22;3892;47.794;19.126;2022-09-01T02:38:57;24.90;64.20
7700;DHT22;3892;47.794;19.126;2022-09-01T02:41:25;24.90;64.20
7700;DHT22;3892;47.794;19.126;2022-09-01T02:43:53;25.00;63.90
7700;DHT22;3892;47.794;19.126;2022-09-01T02:46:22;25.00;64.00
7700;DHT22;3892;47.794;19.126;2022-09-01T02:48:51;24.90;64.10
7700;DHT22;3892;47.794;19.126;2022-09-01T02:51:21;24.90;63.90
7700;DHT22;3892;47.794;19.126;2022-09-01T02:53:50;24.90;63.90
7700;DHT22;3892;47.794;19.126;2022-09-01T02:56:19;24.90;63.80
7700;DHT22;3892;47.794;19.126;2022-09-01T02:58:49;24.90;63.70
7700;DHT22;3892;47.794;19.126;2022-09-01T03:01:19;24.90;64.30
7700;DHT22;3892;47.794;19.126;2022-09-01T03:03:54;24.90;63.60
7700;DHT22;3892;47.794;19.126;2022-09-01T03:06:21;24.90;63.80
7700;DHT22;3892;47.794;19.126;2022-09-01T03:08:49;24.80;64.20
7700;DHT22;3892;47.794;19.126;2022-09-01T03:11:16;24.90;64.00
7700;DHT22;3892;47.794;19.126;2022-09-01T03:13:44;24.90;63.80
7700;DHT22;3892;47.794;19.126;2022-09-01T03:16:12;24.80;63.60
7700;DHT22;3892;47.794;19.126;2022-09-01T03:18:39;24.80;64.10
7700;DHT22;3892;47.794;19.126;2022-09-01T03:21:09;24.80;64.40
7700;DHT22;3892;47.794;19.126;2022-09-01T03:23:41;24.80;64.30
7700;DHT22;3892;47.794;19.126;2022-09-01T03:26:08;24.90;63.90
7700;DHT22;3892;47.794;19.126;2022-09-01T03:28:35;24.90;63.80
7700;DHT22;3892;47.794;19.126;2022-09-01T03:31:03;24.90;63.80
7700;DHT22;3892;47.794;19.126;2022-09-01T03:33:31;24.80;63.50
7700;DHT22;3892;47.794;19.126;2022-09-01T03:35:59;24.80;63.60
7700;DHT22;3892;47.794;19.126;2022-09-01T03:38:27;24.80;63.60
7700;DHT22;3892;47.794;19.126;2022-09-01T03:40:57;24.80;63.80
7700;DHT22;3892;47.794;19.126;2022-09-01T03:43:27;24.80;63.80
7700;DHT22;3892;47.794;19.126;2022-09-01T03:45:56;24.80;64.20
7700;DHT22;3892;47.794;19.126;2022-09-01T03:48:25;24.80;64.20
7700;DHT22;3892;47.794;19.126;2022-09-01T03:50:54;24.80;64.40
7700;DHT22;3892;47.794;19.126;2022-09-01T03:53:31;24.70;63.50
7700;DHT22;3892;47.794;19.126;2022-09-01T03:56:01;24.70;63.40
7700;DHT22;3892;47.794;19.126;2022-09-01T03:58:31;24.60;63.00
7700;DHT22;3892;47.794;19.126;2022-09-01T04:00:59;24.50;62.30
7700;DHT22;3892;47.794;19.126;2022-09-01T04:03:29;24.40;62.90
7700;DHT22;3892;47.794;19.126;2022-09-01T04:05:58;24.30;62.70
7700;DHT22;3892;47.794;19.126;2022-09-01T04:08:26;24.20;62.70
7700;DHT22;3892;47.794;19.126;2022-09-01T04:10:57;24.20;63.10
7700;DHT22;3892;47.794;19.126;2022-09-01T04:13:27;24.10;63.10
7700;DHT22;3892;47.794;19.126;2022-09-01T04:15:55;24.20;64.10
7700;DHT22;3892;47.794;19.126;2022-09-01T04:18:23;24.20;64.70
7700;DHT22;3892;47.794;19.126;2022-09-01T04:20:51;24.20;64.50
7700;DHT22;3892;47.794;19.126;2022-09-01T04:23:20;24.20;64.40
7700;DHT22;3892;47.794;19.126;2022-09-01T04:25:56;24.20;64.30
7700;DHT22;3892;47.794;19.126;2022-09-01T04:28:29;24.20;64.70
7700;DHT22;3892;47.794;19.126;2022-09-01T04:30:58;24.20;65.10
7700;DHT22;3892;47.794;19.126;2022-09-01T04:33:31;24.30;65.20
7700;DHT22;3892;47.794;19.126;2022-09-01T04:36:02;24.30;64.60
7700;DHT22;3892;47.794;19.126;2022-09-01T04:38:30;24.30;64.40
7700;DHT22;3892;47.794;19.126;2022-09-01T04:41:03;24.30;64.90
7700;DHT22;3892;47.794;19.126;2022-09-01T04:43:32;24.30;65.20
7700;DHT22;3892;47.794;19.126;2022-09-01T04:45:59;24.30;65.10
7700;DHT22;3892;47.794;19.126;2022-09-01T04:48:26;24.20;65.40
7700;DHT22;3892;47.794;19.126;2022-09-01T04:50:53;24.20;65.80
7700;DHT22;3892;47.794;19.126;2022-09-01T04:53:25;24.20;66.20
7700;DHT22;3892;47.794;19.126;2022-09-01T04:55:52;24.20;66.40
7700;DHT22;3892;47.794;19.126;2022-09-01T04:58:22;24.20;66.80
7700;DHT22;3892;47.794;19.126;2022-09-01T05:00:50;24.20;66.90
7700;DHT22;3892;47.794;19.126;2022-09-01T05:03:18;24.20;66.40
7700;DHT22;3892;47.794;19.126;2022-09-01T05:06:02;24.20;66.50
7700;DHT22;3892;47.794;19.126;2022-09-01T05:08:30;24.20;66.70
7700;DHT22;3892;47.794;19.126;2022-09-01T05:11:03;24.30;66.70
7700;DHT22;3892;47.794;19.126;2022-09-01T05:13:46;24.30;66.90
7700;DHT22;3892;47.794;19.126;2022-09-01T05:16:15;24.30;66.50
7700;DHT22;3892;47.794;19.126;2022-09-01T05:18:47;24.30;66.80
7700;DHT22;3892;47.794;19.126;2022-09-01T05:21:17;24.30;66.90
7700;DHT22;3892;47.794;19.126;2022-09-01T05:23:47;24.30;67.00
7700;DHT22;3892;47.794;19.126;2022-09-01T05:26:20;24.20;66.50
7700;DHT22;3892;47.794;19.126;2022-09-01T05:28:51;24.30;66.60
7700;DHT22;3892;47.794;19.126;2022-09-01T05:31:20;24.30;66.40
7700;DHT22;3892;47.794;19.126;2022-09-01T05:33:48;24.30;66.20
7700;DHT22;3892;47.794;19.126;2022-09-01T05:36:20;24.30;65.90
7700;DHT22;3892;47.794;19.126;2022-09-01T05:38:49;24.30;65.90
7700;DHT22;3892;47.794;19.126;2022-09-01T05:41:20;24.30;65.80
7700;DHT22;3892;47.794;19.126;2022-09-01T05:43:51;24.30;66.00
7700;DHT22;3892;47.794;19.126;2022-09-01T05:46:22;24.30;66.10
7700;DHT22;3892;47.794;19.126;2022-09-01T05:48:52;24.40;66.20
7700;DHT22;3892;47.794;19.126;2022-09-01T05:51:22;24.30;66.00
7700;DHT22;3892;47.794;19.126;2022-09-01T05:53:51;24.30;66.00
7700;DHT22;3892;47.794;19.126;2022-09-01T05:56:20;24.40;66.40
7700;DHT22;3892;47.794;19.126;2022-09-01T05:58:50;24.40;66.10
7700;DHT22;3892;47.794;19.126;2022-09-01T06:01:20;24.30;66.60
7700;DHT22;3892;47.794;19.126;2022-09-01T06:03:50;24.30;66.90
7700;DHT22;3892;47.794;19.126;2022-09-01T06:06:24;24.30;67.10
7700;DHT22;3892;47.794;19.126;2022-09-01T06:08:52;24.30;67.40
7700;DHT22;3892;47.794;19.126;2022-09-01T06:11:24;24.30;67.60
7700;DHT22;3892;47.794;19.126;2022-09-01T06:13:53;24.40;68.00
7700;DHT22;3892;47.794;19.126;2022-09-01T06:16:22;24.40;67.90
7700;DHT22;3892;47.794;19.126;2022-09-01T06:18:52;24.40;68.70
7700;DHT22;3892;47.794;19.126;2022-09-01T06:21:21;24.40;67.90
7700;DHT22;3892;47.794;19.126;2022-09-01T06:23:50;24.50;68.40
7700;DHT22;3892;47.794;19.126;2022-09-01T06:26:20;24.50;68.20
7700;DHT22;3892;47.794;19.126;2022-09-01T06:28:48;24.50;69.30
7700;DHT22;3892;47.794;19.126;2022-09-01T06:31:21;24.60;67.90
7700;DHT22;3892;47.794;19.126;2022-09-01T06:33:51;24.60;67.90
7700;DHT22;3892;47.794;19.126;2022-09-01T06:36:20;24.60;68.60
7700;DHT22;3892;47.794;19.126;2022-09-01T06:38:48;24.60;68.80
7700;DHT22;3892;47.794;19.126;2022-09-01T06:41:17;24.60;69.00
7700;DHT22;3892;47.794;19.126;2022-09-01T06:43:44;24.60;69.30
7700;DHT22;3892;47.794;19.126;2022-09-01T06:46:11;24.60;68.90
7700;DHT22;3892;47.794;19.126;2022-09-01T06:48:40;24.60;69.40
7700;DHT22;3892;47.794;19.126;2022-09-01T06:51:12;24.60;70.10
7700;DHT22;3892;47.794;19.126;2022-09-01T06:53:40;24.60;70.30
7700;DHT22;3892;47.794;19.126;2022-09-01T06:56:11;24.60;69.90
7700;DHT22;3892;47.794;19.126;2022-09-01T06:58:42;24.60;70.00
7700;DHT22;3892;47.794;19.126;2022-09-01T07:01:14;24.60;69.90
7700;DHT22;3892;47.794;19.126;2022-09-01T07:03:45;24.60;69.50
7700;DHT22;3892;47.794;19.126;2022-09-01T07:06:31;24.60;70.40
7700;DHT22;3892;47.794;19.126;2022-09-01T07:09:14;24.70;69.20
7700;DHT22;3892;47.794;19.126;2022-09-01T07:11:45;24.60;69.20
7700;DHT22;3892;47.794;19.126;2022-09-01T07:14:15;24.70;70.90
7700;DHT22;3892;47.794;19.126;2022-09-01T07:16:42;24.60;70.00
7700;DHT22;3892;47.794;19.126;2022-09-01T07:19:13;24.60;70.70
7700;DHT22;3892;47.794;19.126;2022-09-01T07:21:50;24.70;71.50
7700;DHT22;3892;47.794;19.126;2022-09-01T07:24:17;24.70;71.60
7700;DHT22;3892;47.794;19.126;2022-09-01T07:27:03;24.70;71.70
7700;DHT22;3892;47.794;19.126;2022-09-01T07:29:32;24.70;72.50
7700;DHT22;3892;47.794;19.126;2022-09-01T07:32:00;24.70;72.30
7700;DHT22;3892;47.794;19.126;2022-09-01T07:34:28;24.70;72.10
7700;DHT22;3892;47.794;19.126;2022-09-01T07:36:58;24.70;72.70
7700;DHT22;3892;47.794;19.126;2022-09-01T07:39:27;24.70;73.00
7700;DHT22;3892;47.794;19.126;2022-09-01T07:42:19;24.70;72.90
7700;DHT22;3892;47.794;19.126;2022-09-01T07:45:07;24.70;72.80
7700;DHT22;3892;47.794;19.126;2022-09-01T07:47:43;24.70;73.80
7700;DHT22;3892;47.794;19.126;2022-09-01T07:50:12;24.70;73.30
7700;DHT22;3892;47.794;19.126;2022-09-01T07:52:41;24.70;73.20
7700;DHT22;3892;47.794;19.126;2022-09-01T07:55:10;24.70;73.40
7700;DHT22;3892;47.794;19.126;2022-09-01T07:57:38;24.80;74.20
7700;DHT22;3892;47.794;19.126;2022-09-01T08:00:09;24.80;74.20
7700;DHT22;3892;47.794;19.126;2022-09-01T08:02:39;24.80;74.10
7700;DHT22;3892;47.794;19.126;2022-09-01T08:05:12;24.80;75.80
7700;DHT22;3892;47.794;19.126;2022-09-01T08:07:40;24.90;77.20
7700;DHT22;3892;47.794;19.126;2022-09-01T08:15:06;25.00;92.20
7700;DHT22;3892;47.794;19.126;2022-09-01T08:17:36;25.10;77.40
7700;DHT22;3892;47.794;19.126;2022-09-01T08:20:08;25.10;75.20
7700;DHT22;3892;47.794;19.126;2022-09-01T08:22:51;25.30;90.90
7700;DHT22;3892;47.794;19.126;2022-09-01T08:27:53;25.30;89.60
7700;DHT22;3892;47.794;19.126;2022-09-01T08:30:21;25.30;76.30
7700;DHT22;3892;47.794;19.126;2022-09-01T08:32:49;25.40;75.70
7700;DHT22;3892;47.794;19.126;2022-09-01T08:35:16;25.40;77.00
7700;DHT22;3892;47.794;19.126;2022-09-01T08:37:44;25.50;78.90
7700;DHT22;3892;47.794;19.126;2022-09-01T08:40:14;25.50;72.50
7700;DHT22;3892;47.794;19.126;2022-09-01T08:42:52;25.50;71.30
7700;DHT22;3892;47.794;19.126;2022-09-01T08:45:28;25.60;69.20
7700;DHT22;3892;47.794;19.126;2022-09-01T08:47:59;25.70;69.50
7700;DHT22;3892;47.794;19.126;2022-09-01T08:50:29;25.70;69.00
7700;DHT22;3892;47.794;19.126;2022-09-01T08:53:35;25.70;69.10
7700;DHT22;3892;47.794;19.126;2022-09-01T08:56:08;25.70;67.20
7700;DHT22;3892;47.794;19.126;2022-09-01T08:58:36;25.80;69.20
7700;DHT22;3892;47.794;19.126;2022-09-01T09:01:33;25.70;68.00
7700;DHT22;3892;47.794;19.126;2022-09-01T09:04:17;25.70;70.50
7700;DHT22;3892;47.794;19.126;2022-09-01T09:06:55;25.70;68.70
7700;DHT22;3892;47.794;19.126;2022-09-01T09:09:34;25.70;68.10
7700;DHT22;3892;47.794;19.126;2022-09-01T09:12:26;25.70;69.60
7700;DHT22;3892;47.794;19.126;2022-09-01T09:15:19;25.80;67.70
7700;DHT22;3892;47.794;19.126;2022-09-01T09:18:00;25.80;68.50
7700;DHT22;3892;47.794;19.126;2022-09-01T09:20:31;25.80;68.50
7700;DHT22;3892;47.794;19.126;2022-09-01T09:23:01;25.90;70.30
7700;DHT22;3892;47.794;19.126;2022-09-01T09:25:32;26.00;68.30
7700;DHT22;3892;47.794;19.126;2022-09-01T09:28:01;26.10;69.60
7700;DHT22;3892;47.794;19.126;2022-09-01T09:30:29;26.10;68.30
7700;DHT22;3892;47.794;19.126;2022-09-01T09:33:01;26.20;69.40
7700;DHT22;3892;47.794;19.126;2022-09-01T09:35:33;26.20;68.90
7700;DHT22;3892;47.794;19.126;2022-09-01T09:38:16;26.30;68.10
7700;DHT22;3892;47.794;19.126;2022-09-01T09:40:59;26.40;66.40
7700;DHT22;3892;47.794;19.126;2022-09-01T09:43:29;26.40;65.60
7700;DHT22;3892;47.794;19.126;2022-09-01T09:46:22;26.50;65.40
7700;DHT22;3892;47.794;19.126;2022-09-01T09:49:06;26.50;64.10
7700;DHT22;3892;47.794;19.126;2022-09-01T09:51:33;26.60;63.80
7700;DHT22;3892;47.794;19.126;2022-09-01T09:54:11;26.70;61.30
7700;DHT22;3892;47.794;19.126;2022-09-01T09:56:39;26.80;61.70
7700;DHT22;3892;47.794;19.126;2022-09-01T09:59:27;26.90;61.00
7700;DHT22;3892;47.794;19.126;2022-09-01T10:01:58;26.90;59.90
7700;DHT22;3892;47.794;19.126;2022-09-01T10:04:36;27.00;59.50
7700;DHT22;3892;47.794;19.126;2022-09-01T10:07:27;27.10;57.50
7700;DHT22;3892;47.794;19.126;2022-09-01T10:09:56;27.20;58.50
7700;DHT22;3892;47.794;19.126;2022-09-01T10:12:23;27.30;57.90
7700;DHT22;3892;47.794;19.126;2022-09-01T10:14:55;27.30;57.00
7700;DHT22;3892;47.794;19.126;2022-09-01T10:17:28;27.40;57.70
7700;DHT22;3892;47.794;19.126;2022-09-01T10:19:58;27.40;56.50
7700;DHT22;3892;47.794;19.126;2022-09-01T10:22:27;27.60;56.30
7700;DHT22;3892;47.794;19.126;2022-09-01T10:24:55;27.60;57.10
7700;DHT22;3892;47.794;19.126;2022-09-01T10:27:24;27.70;55.50
7700;DHT22;3892;47.794;19.126;2022-09-01T10:29:59;27.90;56.10
7700;DHT22;3892;47.794;19.126;2022-09-01T10:32:31;28.10;55.10
7700;DHT22;3892;47.794;19.126;2022-09-01T10:34:59;28.30;54.20
7700;DHT22;3892;47.794;19.126;2022-09-01T10:37:30;28.40;53.80
7700;DHT22;3892;47.794;19.126;2022-09-01T10:40:16;28.50;53.10
7700;DHT22;3892;47.794;19.126;2022-09-01T10:42:45;28.70;53.30
7700;DHT22;3892;47.794;19.126;2022-09-01T10:45:19;28.80;53.00
7700;DHT22;3892;47.794;19.126;2022-09-01T10:47:54;29.00;53.70
7700;DHT22;3892;47.794;19.126;2022-09-01T10:50:25;29.10;53.20
7700;DHT22;3892;47.794;19.126;2022-09-01T10:52:58;29.40;52.60
7700;DHT22;3892;47.794;19.126;2022-09-01T10:55:30;29.50;52.00
7700;DHT22;3892;47.794;19.126;2022-09-01T10:58:14;29.60;49.80
7700;DHT22;3892;47.794;19.126;2022-09-01T11:00:49;29.70;50.20
7700;DHT22;3892;47.794;19.126;2022-09-01T11:03:36;29.70;49.00
7700;DHT22;3892;47.794;19.126;2022-09-01T11:06:05;29.90;51.10
7700;DHT22;3892;47.794;19.126;2022-09-01T11:08:44;30.10;50.80
7700;DHT22;3892;47.794;19.126;2022-09-01T11:11:25;30.20;48.90
7700;DHT22;3892;47.794;19.126;2022-09-01T11:13:57;30.30;49.60
7700;DHT22;3892;47.794;19.126;2022-09-01T11:16:32;30.40;49.00
7700;DHT22;3892;47.794;19.126;2022-09-01T11:19:16;30.50;48.80
7700;DHT22;3892;47.794;19.126;2022-09-01T11:22:02;30.50;49.50
7700;DHT22;3892;47.794;19.126;2022-09-01T11:24:49;30.60;48.70
7700;DHT22;3892;47.794;19.126;2022-09-01T11:27:55;30.70;48.60
7700;DHT22;3892;47.794;19.126;2022-09-01T11:30:23;30.70;48.20
7700;DHT22;3892;47.794;19.126;2022-09-01T11:33:10;30.60;48.50
7700;DHT22;3892;47.794;19.126;2022-09-01T11:35:38;30.60;50.10
7700;DHT22;3892;47.794;19.126;2022-09-01T11:38:06;30.60;49.20
7700;DHT22;3892;47.794;19.126;2022-09-01T11:40:35;30.50;49.90
7700;DHT22;3892;47.794;19.126;2022-09-01T11:43:06;30.50;51.80
7700;DHT22;3892;47.794;19.126;2022-09-01T11:45:39;30.50;51.70
7700;DHT22;3892;47.794;19.126;2022-09-01T11:48:12;30.50;51.60
7700;DHT22;3892;47.794;19.126;2022-09-01T11:50:41;30.60;52.10
7700;DHT22;3892;47.794;19.126;2022-09-01T11:53:11;30.50;52.60
7700;DHT22;3892;47.794;19.126;2022-09-01T11:55:41;30.50;51.70
7700;DHT22;3892;47.794;19.126;2022-09-01T11:58:10;30.50;53.50
7700;DHT22;3892;47.794;19.126;2022-09-01T12:00:40;30.40;55.30
7700;DHT22;3892;47.794;19.126;2022-09-01T12:03:19;30.40;54.40
7700;DHT22;3892;47.794;19.126;2022-09-01T12:05:51;30.40;52.20
7700;DHT22;3892;47.794;19.126;2022-09-01T12:08:19;30.50;54.40
7700;DHT22;3892;47.794;19.126;2022-09-01T12:10:47;30.50;52.90
7700;DHT22;3892;47.794;19.126;2022-09-01T12:13:19;30.50;53.40
7700;DHT22;3892;47.794;19.126;2022-09-01T12:15:52;30.60;52.20
7700;DHT22;3892;47.794;19.126;2022-09-01T12:18:22;30.60;52.10
7700;DHT22;3892;47.794;19.126;2022-09-01T12:20:53;30.70;52.80
7700;DHT22;3892;47.794;19.126;2022-09-01T12:23:24;30.80;51.10
7700;DHT22;3892;47.794;19.126;2022-09-01T12:25:53;30.80;51.70
7700;DHT22;3892;47.794;19.126;2022-09-01T12:28:21;30.80;50.90
7700;DHT22;3892;47.794;19.126;2022-09-01T12:30:49;30.70;50.40
7700;DHT22;3892;47.794;19.126;2022-09-01T12:33:18;30.80;51.30
7700;DHT22;3892;47.794;19.126;2022-09-01T12:35:47;30.80;49.90
7700;DHT22;3892;47.794;19.126;2022-09-01T12:38:25;30.90;51.30
7700;DHT22;3892;47.794;19.126;2022-09-01T12:40:56;30.90;49.40
7700;DHT22;3892;47.794;19.126;2022-09-01T12:43:28;30.90;49.00
7700;DHT22;3892;47.794;19.126;2022-09-01T12:45:55;30.80;51.40
7700;DHT22;3892;47.794;19.126;2022-09-01T12:48:25;30.80;54.00
7700;DHT22;3892;47.794;19.126;2022-09-01T12:50:56;30.80;59.90
7700;DHT22;3892;47.794;19.126;2022-09-01T12:53:26;30.70;58.80
7700;DHT22;3892;47.794;19.126;2022-09-01T12:56:15;30.70;64.00
7700;DHT22;3892;47.794;19.126;2022-09-01T13:01:25;30.70;66.20
7700;DHT22;3892;47.794;19.126;2022-09-01T13:04:26;30.70;62.50
7700;DHT22;3892;47.794;19.126;2022-09-01T13:07:01;30.70;63.80
7700;DHT22;3892;47.794;19.126;2022-09-01T13:09:28;30.70;65.40
7700;DHT22;3892;47.794;19.126;2022-09-01T13:12:14;30.70;62.90
7700;DHT22;3892;47.794;19.126;2022-09-01T13:14:41;30.80;65.80
7700;DHT22;3892;47.794;19.126;2022-09-01T13:19:38;30.80;64.20
7700;DHT22;3892;47.794;19.126;2022-09-01T13:22:06;30.80;60.40
7700;DHT22;3892;47.794;19.126;2022-09-01T13:24:33;30.90;64.40
7700;DHT22;3892;47.794;19.126;2022-09-01T13:27:00;30.80;61.60
7700;DHT22;3892;47.794;19.126;2022-09-01T13:29:27;30.90;61.50
7700;DHT22;3892;47.794;19.126;2022-09-01T13:31:53;30.90;63.30
7700;DHT22;3892;47.794;19.126;2022-09-01T13:34:21;30.90;60.40
7700;DHT22;3892;47.794;19.126;2022-09-01T13:36:48;30.80;59.60
7700;DHT22;3892;47.794;19.126;2022-09-01T13:39:17;30.90;61.10
7700;DHT22;3892;47.794;19.126;2022-09-01T13:41:45;30.60;61.40
7700;DHT22;3892;47.794;19.126;2022-09-01T13:44:12;30.60;60.10
7700;DHT22;3892;47.794;19.126;2022-09-01T13:46:39;30.60;63.40
7700;DHT22;3892;47.794;19.126;2022-09-01T13:49:07;30.60;61.80
7700;DHT22;3892;47.794;19.126;2022-09-01T13:51:34;30.60;63.30
7700;DHT22;3892;47.794;19.126;2022-09-01T13:54:02;30.50;61.30
7700;DHT22;3892;47.794;19.126;2022-09-01T13:56:30;30.60;61.80
7700;DHT22;3892;47.794;19.126;2022-09-01T13:58:57;30.70;61.70
7700;DHT22;3892;47.794;19.126;2022-09-01T14:01:24;30.70;61.70
7700;DHT22;3892;47.794;19.126;2022-09-01T14:03:51;30.70;60.60
7700;DHT22;3892;47.794;19.126;2022-09-01T14:06:17;30.80;63.30
7700;DHT22;3892;47.794;19.126;2022-09-01T14:11:16;30.80;62.00
7700;DHT22;3892;47.794;19.126;2022-09-01T14:13:46;30.90;59.30
7700;DHT22;3892;47.794;19.126;2022-09-01T14:16:15;30.90;63.70
7700;DHT22;3892;47.794;19.126;2022-09-01T14:18:42;30.90;61.40
7700;DHT22;3892;47.794;19.126;2022-09-01T14:21:13;30.90;59.80
7700;DHT22;3892;47.794;19.126;2022-09-01T14:23:42;30.90;58.90
7700;DHT22;3892;47.794;19.126;2022-09-01T14:26:09;30.90;58.10
7700;DHT22;3892;47.794;19.126;2022-09-01T14:28:37;30.80;58.30
7700;DHT22;3892;47.794;19.126;2022-09-01T14:31:08;30.80;57.90
7700;DHT22;3892;47.794;19.126;2022-09-01T14:36:05;30.70;61.90
7700;DHT22;3892;47.794;19.126;2022-09-01T14:38:32;30.70;60.50
7700;DHT22;3892;47.794;19.126;2022-09-01T14:41:00;30.60;59.10
7700;DHT22;3892;47.794;19.126;2022-09-01T14:43:27;30.50;57.10
7700;DHT22;3892;47.794;19.126;2022-09-01T14:46:02;30.40;57.10
7700;DHT22;3892;47.794;19.126;2022-09-01T14:48:32;30.40;56.40
7700;DHT22;3892;47.794;19.126;2022-09-01T15:35:38;29.30;63.80
7700;DHT22;3892;47.794;19.126;2022-09-01T15:38:05;29.20;57.70
7700;DHT22;3892;47.794;19.126;2022-09-01T15:40:34;29.10;56.00
7700;DHT22;3892;47.794;19.126;2022-09-01T15:43:04;29.00;58.50
7700;DHT22;3892;47.794;19.126;2022-09-01T15:45:31;28.90;58.50
7700;DHT22;3892;47.794;19.126;2022-09-01T15:47:58;28.90;62.20
7700;DHT22;3892;47.794;19.126;2022-09-01T15:50:28;28.90;62.10
7700;DHT22;3892;47.794;19.126;2022-09-01T15:52:57;28.90;59.20
7700;DHT22;3892;47.794;19.126;2022-09-01T15:55:25;28.90;61.30
7700;DHT22;3892;47.794;19.126;2022-09-01T15:57:54;28.90;59.40
7700;DHT22;3892;47.794;19.126;2022-09-01T16:00:23;28.80;60.90
7700;DHT22;3892;47.794;19.126;2022-09-01T16:02:51;28.80;59.90
7700;DHT22;3892;47.794;19.126;2022-09-01T16:05:18;28.70;60.70
7700;DHT22;3892;47.794;19.126;2022-09-01T16:07:45;28.60;59.80
7700;DHT22;3892;47.794;19.126;2022-09-01T16:10:13;28.70;57.40
7700;DHT22;3892;47.794;19.126;2022-09-01T16:12:41;28.60;57.30
7700;DHT22;3892;47.794;19.126;2022-09-01T16:15:12;28.50;57.70
7700;DHT22;3892;47.794;19.126;2022-09-01T16:17:55;28.60;58.30
7700;DHT22;3892;47.794;19.126;2022-09-01T16:20:32;28.60;58.40
7700;DHT22;3892;47.794;19.126;2022-09-01T16:23:11;28.60;58.50
7700;DHT22;3892;47.794;19.126;2022-09-01T16:25:39;28.60;58.30
7700;DHT22;3892;47.794;19.126;2022-09-01T16:28:11;28.60;56.80
7700;DHT22;3892;47.794;19.126;2022-09-01T16:30:46;28.60;57.50
7700;DHT22;3892;47.794;19.126;2022-09-01T16:33:14;28.50;57.30
7700;DHT22;3892;47.794;19.126;2022-09-01T16:35:54;28.60;57.70
7700;DHT22;3892;47.794;19.126;2022-09-01T16:38:29;28.50;58.20
7700;DHT22;3892;47.794;19.126;2022-09-01T16:41:04;28.50;58.30
7700;DHT22;3892;47.794;19.126;2022-09-01T16:43:38;28.50;59.30
7700;DHT22;3892;47.794;19.126;2022-09-01T16:46:11;28.50;60.80
7700;DHT22;3892;47.794;19.126;2022-09-01T16:48:44;28.50;60.20
7700;DHT22;3892;47.794;19.126;2022-09-01T16:51:17;28.50;59.60
7700;DHT22;3892;47.794;19.126;2022-09-01T16:53:53;28.50;60.10
7700;DHT22;3892;47.794;19.126;2022-09-01T16:56:25;28.40;61.00
7700;DHT22;3892;47.794;19.126;2022-09-01T16:58:58;28.40;61.50
7700;DHT22;3892;47.794;19.126;2022-09-01T17:01:38;28.40;62.90
7700;DHT22;3892;47.794;19.126;2022-09-01T17:04:18;28.40;64.80
7700;DHT22;3892;47.794;19.126;2022-09-01T17:06:54;28.40;64.80
7700;DHT22;3892;47.794;19.126;2022-09-01T17:09:28;28.30;65.50
7700;DHT22;3892;47.794;19.126;2022-09-01T17:12:03;28.30;65.20
7700;DHT22;3892;47.794;19.126;2022-09-01T17:14:41;28.30;65.70
7700;DHT22;3892;47.794;19.126;2022-09-01T17:17:14;28.20;66.40
7700;DHT22;3892;47.794;19.126;2022-09-01T17:19:43;28.20;66.90
7700;DHT22;3892;47.794;19.126;2022-09-01T17:22:18;28.10;66.50
7700;DHT22;3892;47.794;19.126;2022-09-01T17:24:49;28.10;67.00
7700;DHT22;3892;47.794;19.126;2022-09-01T17:27:20;28.00;68.00
7700;DHT22;3892;47.794;19.126;2022-09-01T17:29:50;28.00;68.70